createdAt,value
2017-07-24T00:00:02.985Z,1005.34
2017-07-24T00:00:51.381Z,1005.31
2017-07-24T00:01:40.106Z,1005.32
2017-07-24T00:02:28.150Z,1005.29
2017-07-24T00:03:16.157Z,1005.28
2017-07-24T00:04:05.251Z,1005.27
2017-07-24T00:04:53.162Z,1005.25
2017-07-24T00:05:41.291Z,1005.25
2017-07-24T00:06:30.280Z,1005.21
2017-07-24T00:07:18.401Z,1005.21
2017-07-24T00:08:06.338Z,1005.17
2017-07-24T00:08:55.392Z,1005.18
2017-07-24T00:09:43.498Z,1005.16
2017-07-24T00:10:31.418Z,1005.11
2017-07-24T00:11:25.711Z,1005.12
2017-07-24T00:12:13.616Z,1005.09
2017-07-24T00:13:02.774Z,1005.06
2017-07-24T00:13:50.723Z,1005.06
2017-07-24T00:14:38.846Z,1005.05
2017-07-24T00:15:26.834Z,1005.05
2017-07-24T00:16:15.764Z,1005.03
2017-07-24T00:17:03.938Z,1005.09
2017-07-24T00:17:52.890Z,1005.08
2017-07-24T00:18:40.643Z,1005.07
2017-07-24T00:19:28.692Z,1005.04
2017-07-24T00:20:18.116Z,1005.03
2017-07-24T00:21:06.168Z,1005.01
2017-07-24T00:21:53.846Z,1005.01
2017-07-24T00:22:43.255Z,1004.98
2017-07-24T00:23:31.306Z,1004.97
2017-07-24T00:24:19.268Z,1005.01
2017-07-24T00:25:08.346Z,1004.96
2017-07-24T00:25:56.401Z,1004.96
2017-07-24T00:26:44.366Z,1004.98
2017-07-24T00:27:32.462Z,1004.94
2017-07-24T00:28:21.430Z,1004.94
2017-07-24T00:29:09.705Z,1004.94
2017-07-24T00:29:57.570Z,1004.89
2017-07-24T00:30:45.665Z,1004.87
2017-07-24T00:31:39.580Z,1004.83
2017-07-24T00:32:28.834Z,1004.85
2017-07-24T00:33:16.740Z,1004.85
2017-07-24T00:34:05.844Z,1004.86
2017-07-24T00:34:53.811Z,1004.87
2017-07-24T00:35:41.963Z,1004.87
2017-07-24T00:36:29.950Z,1004.87
2017-07-24T00:37:18.979Z,1004.85
2017-07-24T00:38:07.134Z,1004.85
2017-07-24T00:38:54.976Z,1004.80
2017-07-24T00:39:44.109Z,1004.80
2017-07-24T00:40:32.177Z,1004.78
2017-07-24T00:41:20.191Z,1004.74
2017-07-24T00:42:09.305Z,1004.74
2017-07-24T00:42:57.182Z,1004.71
2017-07-24T00:43:45.373Z,1004.66
2017-07-24T00:44:34.361Z,1004.64
2017-07-24T00:45:22.533Z,1004.63
2017-07-24T00:46:10.420Z,1004.62
2017-07-24T00:46:59.469Z,1004.59
2017-07-24T00:47:53.473Z,1004.58
2017-07-24T00:48:41.589Z,1004.58
2017-07-24T00:49:29.618Z,1004.57
2017-07-24T00:50:17.717Z,1004.56
2017-07-24T00:51:06.736Z,1004.55
2017-07-24T00:51:54.759Z,1004.53
2017-07-24T00:52:42.810Z,1004.54
2017-07-24T00:53:31.827Z,1004.53
2017-07-24T00:54:19.965Z,1004.53
2017-07-24T00:55:07.969Z,1004.54
2017-07-24T00:55:56.025Z,1004.51
2017-07-24T00:56:43.981Z,1004.49
2017-07-24T00:57:32.344Z,1004.44
2017-07-24T00:58:19.812Z,1004.45
2017-07-24T00:59:07.755Z,1004.48
2017-07-24T00:59:56.138Z,1004.45
2017-07-24T01:00:43.805Z,1004.42
2017-07-24T01:01:37.899Z,1004.40
2017-07-24T01:02:27.000Z,1004.39
2017-07-24T01:03:15.061Z,1004.42
2017-07-24T01:04:04.068Z,1004.40
2017-07-24T01:04:52.078Z,1004.42
2017-07-24T01:05:40.176Z,1004.43
2017-07-24T01:06:28.111Z,1004.44
2017-07-24T01:07:28.238Z,1004.43
2017-07-24T01:08:16.297Z,1004.42
2017-07-24T01:09:04.348Z,1004.41
2017-07-24T01:09:52.264Z,1004.44
2017-07-24T01:10:40.288Z,1004.43
2017-07-24T01:11:29.484Z,1004.37
2017-07-24T01:12:17.462Z,1004.36
2017-07-24T01:13:05.559Z,1004.32
2017-07-24T01:13:53.644Z,1004.28
2017-07-24T01:14:47.619Z,1004.30
2017-07-24T01:15:36.922Z,1004.30
2017-07-24T01:16:24.685Z,1004.31
2017-07-24T01:17:14.100Z,1004.28
2017-07-24T01:18:01.715Z,1004.29
2017-07-24T01:18:49.694Z,1004.27
2017-07-24T01:19:38.902Z,1004.28
2017-07-24T01:20:26.867Z,1004.28
2017-07-24T01:21:15.034Z,1004.29
2017-07-24T01:22:04.343Z,1004.29
2017-07-24T01:22:52.423Z,1004.27
2017-07-24T01:23:40.054Z,1004.29
2017-07-24T01:24:29.033Z,1004.30
2017-07-24T01:25:17.379Z,1004.32
2017-07-24T01:26:05.313Z,1004.33
2017-07-24T01:26:54.187Z,1004.30
2017-07-24T01:27:42.653Z,1004.26
2017-07-24T01:28:30.327Z,1004.28
2017-07-24T01:29:19.432Z,1004.26
2017-07-24T01:30:07.449Z,1004.24
2017-07-24T01:30:55.755Z,1004.26
2017-07-24T01:31:44.501Z,1004.26
2017-07-24T01:32:32.960Z,1004.23
2017-07-24T01:33:20.546Z,1004.21
2017-07-24T01:34:09.641Z,1004.20
2017-07-24T01:34:57.682Z,1004.22
2017-07-24T01:35:46.049Z,1004.24
2017-07-24T01:36:34.797Z,1004.18
2017-07-24T01:37:23.205Z,1004.19
2017-07-24T01:38:10.801Z,1004.19
2017-07-24T01:38:59.909Z,1004.18
2017-07-24T01:39:48.006Z,1004.15
2017-07-24T01:40:36.152Z,1004.16
2017-07-24T01:41:25.085Z,1004.14
2017-07-24T01:42:13.471Z,1004.10
2017-07-24T01:43:01.161Z,1004.11
2017-07-24T01:43:49.130Z,1004.11
2017-07-24T01:44:38.216Z,1004.14
2017-07-24T01:45:26.330Z,1004.13
2017-07-24T01:46:15.541Z,1004.11
2017-07-24T01:47:03.352Z,1004.08
2017-07-24T01:47:52.903Z,1004.08
2017-07-24T01:48:40.414Z,1004.10
2017-07-24T01:49:28.431Z,1004.07
2017-07-24T01:50:16.477Z,1004.05
2017-07-24T01:51:05.864Z,1004.08
2017-07-24T01:51:53.536Z,1004.07
2017-07-24T01:52:41.749Z,1004.05
2017-07-24T01:53:30.772Z,1004.03
2017-07-24T01:54:18.875Z,1004.02
2017-07-24T01:55:06.779Z,1004.03
2017-07-24T01:55:55.849Z,1004.00
2017-07-24T01:56:43.835Z,1003.93
2017-07-24T01:57:32.356Z,1003.98
2017-07-24T01:58:21.315Z,1003.91
2017-07-24T01:59:09.035Z,1003.94
2017-07-24T01:59:57.127Z,1003.92
2017-07-24T02:00:46.129Z,1003.88
2017-07-24T02:01:34.534Z,1003.89
2017-07-24T02:02:22.372Z,1003.88
2017-07-24T02:03:11.227Z,1003.86
2017-07-24T02:03:59.309Z,1003.85
2017-07-24T02:04:47.247Z,1003.83
2017-07-24T02:05:35.324Z,1003.81
2017-07-24T02:06:24.810Z,1003.77
2017-07-24T02:07:12.787Z,1003.79
2017-07-24T02:08:00.501Z,1003.76
2017-07-24T02:08:49.823Z,1003.76
2017-07-24T02:09:37.596Z,1003.73
2017-07-24T02:10:26.673Z,1003.70
2017-07-24T02:11:14.612Z,1003.69
2017-07-24T02:12:02.710Z,1003.67
2017-07-24T02:12:52.328Z,1003.69
2017-07-24T02:13:39.786Z,1003.68
2017-07-24T02:14:27.865Z,1003.73
2017-07-24T02:15:16.848Z,1003.71
2017-07-24T02:16:04.941Z,1003.71
2017-07-24T02:16:53.337Z,1003.69
2017-07-24T02:17:41.399Z,1003.69
2017-07-24T02:18:30.236Z,1003.68
2017-07-24T02:19:18.145Z,1003.73
2017-07-24T02:20:07.183Z,1003.70
2017-07-24T02:20:55.251Z,1003.64
2017-07-24T02:21:43.824Z,1003.63
2017-07-24T02:22:32.822Z,1003.61
2017-07-24T02:23:20.562Z,1003.62
2017-07-24T02:24:08.628Z,1003.61
2017-07-24T02:24:57.688Z,1003.63
2017-07-24T02:25:45.654Z,1003.60
2017-07-24T02:26:33.850Z,1003.61
2017-07-24T02:27:22.906Z,1003.64
2017-07-24T02:28:11.032Z,1003.61
2017-07-24T02:28:59.024Z,1003.63
2017-07-24T02:29:47.998Z,1003.67
2017-07-24T02:30:35.731Z,1003.65
2017-07-24T02:31:24.058Z,1003.66
2017-07-24T02:32:18.089Z,1003.64
2017-07-24T02:33:11.956Z,1003.66
2017-07-24T02:34:11.838Z,1003.69
2017-07-24T02:35:07.402Z,1003.69
2017-07-24T02:36:01.220Z,1003.70
2017-07-24T02:36:56.156Z,1003.66
2017-07-24T02:37:50.484Z,1003.61
2017-07-24T02:38:45.137Z,1003.57
2017-07-24T02:39:39.353Z,1003.56
2017-07-24T02:40:34.500Z,1003.57
2017-07-24T02:41:22.584Z,1003.53
2017-07-24T02:42:10.661Z,1003.54
2017-07-24T02:42:58.391Z,1003.52
2017-07-24T02:43:47.490Z,1003.54
2017-07-24T02:44:35.323Z,1003.50
2017-07-24T02:45:23.349Z,1003.53
2017-07-24T02:46:12.796Z,1003.51
2017-07-24T02:47:00.713Z,1003.50
2017-07-24T02:47:48.922Z,1003.54
2017-07-24T02:48:37.878Z,1003.50
2017-07-24T02:49:25.606Z,1003.49
2017-07-24T02:50:13.722Z,1003.49
2017-07-24T02:51:02.706Z,1003.49
2017-07-24T02:51:50.772Z,1003.50
2017-07-24T02:52:38.932Z,1003.48
2017-07-24T02:53:28.036Z,1003.44
2017-07-24T02:54:15.998Z,1003.41
2017-07-24T02:55:03.999Z,1003.41
2017-07-24T02:55:51.981Z,1003.45
2017-07-24T02:56:40.939Z,1003.45
2017-07-24T02:57:29.048Z,1003.47
2017-07-24T02:58:18.510Z,1003.49
2017-07-24T02:59:06.141Z,1003.48
2017-07-24T02:59:54.206Z,1003.44
2017-07-24T03:00:43.232Z,1003.46
2017-07-24T03:01:31.338Z,1003.49
2017-07-24T03:02:19.849Z,1003.43
2017-07-24T03:03:08.314Z,1003.47
2017-07-24T03:03:56.736Z,1003.46
2017-07-24T03:04:44.449Z,1003.42
2017-07-24T03:05:33.510Z,1003.43
2017-07-24T03:06:21.674Z,1003.43
2017-07-24T03:07:09.844Z,1003.40
2017-07-24T03:07:57.600Z,1003.43
2017-07-24T03:08:46.629Z,1003.36
2017-07-24T03:09:34.661Z,1003.38
2017-07-24T03:10:23.835Z,1003.33
2017-07-24T03:11:11.796Z,1003.37
2017-07-24T03:11:59.945Z,1003.38
2017-07-24T03:12:47.793Z,1003.40
2017-07-24T03:13:35.927Z,1003.37
2017-07-24T03:14:29.955Z,1003.39
2017-07-24T03:15:19.000Z,1003.34
2017-07-24T03:16:07.106Z,1003.36
2017-07-24T03:16:56.082Z,1003.36
2017-07-24T03:17:44.164Z,1003.37
2017-07-24T03:18:32.417Z,1003.34
2017-07-24T03:19:21.648Z,1003.32
2017-07-24T03:20:09.311Z,1003.33
2017-07-24T03:20:57.290Z,1003.32
2017-07-24T03:21:46.546Z,1003.34
2017-07-24T03:22:34.625Z,1003.33
2017-07-24T03:23:25.272Z,1003.35
2017-07-24T03:24:11.424Z,1003.32
2017-07-24T03:24:59.522Z,1003.30
2017-07-24T03:25:47.941Z,1003.34
2017-07-24T03:26:41.657Z,1003.29
2017-07-24T03:27:29.634Z,1003.31
2017-07-24T03:28:18.718Z,1003.29
2017-07-24T03:29:06.809Z,1003.33
2017-07-24T03:29:54.746Z,1003.31
2017-07-24T03:30:43.867Z,1003.29
2017-07-24T03:31:31.828Z,1003.29
2017-07-24T03:32:19.937Z,1003.30
2017-07-24T03:33:07.976Z,1003.29
2017-07-24T03:33:56.933Z,1003.29
2017-07-24T03:34:45.027Z,1003.33
2017-07-24T03:35:33.044Z,1003.30
2017-07-24T03:36:22.233Z,1003.35
2017-07-24T03:37:10.634Z,1003.31
2017-07-24T03:37:59.409Z,1003.35
2017-07-24T03:38:54.320Z,1003.39
2017-07-24T03:39:55.450Z,1003.34
2017-07-24T03:40:44.314Z,1003.35
2017-07-24T03:41:32.380Z,1003.34
2017-07-24T03:42:20.714Z,1003.38
2017-07-24T03:43:09.765Z,1003.33
2017-07-24T03:43:57.785Z,1003.35
2017-07-24T03:44:45.884Z,1003.31
2017-07-24T03:45:35.012Z,1003.33
2017-07-24T03:46:22.989Z,1003.29
2017-07-24T03:47:11.123Z,1003.33
2017-07-24T03:48:00.126Z,1003.30
2017-07-24T03:49:00.062Z,1003.31
2017-07-24T03:49:55.226Z,1003.26
2017-07-24T03:50:50.250Z,1003.28
2017-07-24T03:51:50.310Z,1003.28
2017-07-24T03:52:45.267Z,1003.31
2017-07-24T03:53:40.432Z,1003.29
2017-07-24T03:54:34.246Z,1003.28
2017-07-24T03:55:34.423Z,1003.28
2017-07-24T03:56:29.450Z,1003.26
2017-07-24T03:57:29.185Z,1003.27
2017-07-24T03:58:30.131Z,1003.27
2017-07-24T03:59:24.238Z,1003.26
2017-07-24T04:00:24.262Z,1003.24
2017-07-24T04:01:19.405Z,1003.24
2017-07-24T04:02:14.796Z,1003.25
2017-07-24T04:03:14.707Z,1003.26
2017-07-24T04:04:14.344Z,1003.28
2017-07-24T04:05:08.385Z,1003.28
2017-07-24T04:06:08.437Z,1003.28
2017-07-24T04:07:03.814Z,1003.31
2017-07-24T04:07:58.907Z,1003.32
2017-07-24T04:08:52.897Z,1003.32
2017-07-24T04:09:52.942Z,1003.28
2017-07-24T04:10:47.654Z,1003.30
2017-07-24T04:11:47.622Z,1003.28
2017-07-24T04:12:47.680Z,1003.26
2017-07-24T04:13:47.745Z,1003.24
2017-07-24T04:14:41.828Z,1003.28
2017-07-24T04:15:41.814Z,1003.28
2017-07-24T04:16:35.967Z,1003.24
2017-07-24T04:17:31.036Z,1003.27
2017-07-24T04:18:19.150Z,1003.24
2017-07-24T04:19:13.028Z,1003.22
2017-07-24T04:20:00.980Z,1003.21
2017-07-24T04:20:49.033Z,1003.20
2017-07-24T04:21:38.158Z,1003.19
2017-07-24T04:22:33.098Z,1003.18
2017-07-24T04:23:34.139Z,1003.17
2017-07-24T04:24:34.170Z,1003.17
2017-07-24T04:25:29.417Z,1003.14
2017-07-24T04:26:29.440Z,1003.17
2017-07-24T04:27:30.624Z,1003.15
2017-07-24T04:28:24.268Z,1003.13
2017-07-24T04:29:24.373Z,1003.14
2017-07-24T04:30:19.888Z,1003.11
2017-07-24T04:31:07.887Z,1003.10
2017-07-24T04:32:07.956Z,1003.08
2017-07-24T04:33:02.823Z,1003.08
2017-07-24T04:33:57.826Z,1003.07
2017-07-24T04:34:57.978Z,1003.07
2017-07-24T04:36:04.114Z,1003.07
2017-07-24T04:36:58.069Z,1003.07
2017-07-24T04:37:52.168Z,1003.11
2017-07-24T04:38:47.116Z,1003.09
2017-07-24T04:39:41.227Z,1003.11
2017-07-24T04:40:29.306Z,1003.12
2017-07-24T04:41:23.265Z,1003.11
2017-07-24T04:42:11.413Z,1003.11
2017-07-24T04:42:58.926Z,1003.10
2017-07-24T04:43:47.177Z,1003.12
2017-07-24T04:44:36.058Z,1003.13
2017-07-24T04:45:24.424Z,1003.14
2017-07-24T04:46:12.168Z,1003.12
2017-07-24T04:47:01.282Z,1003.10
2017-07-24T04:47:49.472Z,1003.11
2017-07-24T04:48:37.505Z,1003.11
2017-07-24T04:49:25.322Z,1003.10
2017-07-24T04:50:19.631Z,1003.12
2017-07-24T04:51:20.769Z,1003.06
2017-07-24T04:52:21.775Z,1003.08
2017-07-24T04:53:16.811Z,1003.04
2017-07-24T04:54:05.921Z,1003.00
2017-07-24T04:54:59.924Z,1003.02
2017-07-24T04:55:53.690Z,1003.03
2017-07-24T04:56:53.733Z,1003.02
2017-07-24T04:57:49.056Z,1003.03
2017-07-24T04:58:48.804Z,1003.02
2017-07-24T04:59:42.831Z,1002.98
2017-07-24T05:00:42.874Z,1002.99
2017-07-24T05:01:37.956Z,1002.97
2017-07-24T05:02:37.846Z,1002.97
2017-07-24T05:03:39.232Z,1002.96
2017-07-24T05:04:39.959Z,1002.90
2017-07-24T05:05:40.954Z,1002.93
2017-07-24T05:06:35.006Z,1002.93
2017-07-24T05:07:35.044Z,1002.91
2017-07-24T05:08:30.178Z,1002.90
2017-07-24T05:09:18.240Z,1002.89
2017-07-24T05:10:12.201Z,1002.89
2017-07-24T05:11:00.279Z,1002.90
2017-07-24T05:11:49.541Z,1002.89
2017-07-24T05:12:38.363Z,1002.92
2017-07-24T05:13:32.720Z,1002.93
2017-07-24T05:14:21.678Z,1002.91
2017-07-24T05:15:09.503Z,1002.91
2017-07-24T05:15:57.763Z,1002.92
2017-07-24T05:16:46.880Z,1002.91
2017-07-24T05:17:41.893Z,1002.95
2017-07-24T05:18:41.957Z,1002.87
2017-07-24T05:19:31.015Z,1002.93
2017-07-24T05:20:20.125Z,1002.87
2017-07-24T05:21:08.153Z,1002.89
2017-07-24T05:22:02.122Z,1002.85
2017-07-24T05:22:50.229Z,1002.91
2017-07-24T05:23:39.159Z,1002.88
2017-07-24T05:24:27.342Z,1002.90
2017-07-24T05:25:16.080Z,1002.84
2017-07-24T05:26:09.967Z,1002.85
2017-07-24T05:27:05.205Z,1002.85
2017-07-24T05:27:54.006Z,1002.82
2017-07-24T05:28:42.326Z,1002.80
2017-07-24T05:29:30.190Z,1002.78
2017-07-24T05:30:18.325Z,1002.82
2017-07-24T05:31:06.262Z,1002.80
2017-07-24T05:31:55.348Z,1002.82
2017-07-24T05:32:49.380Z,1002.82
2017-07-24T05:33:43.338Z,1002.85
2017-07-24T05:34:37.412Z,1002.88
2017-07-24T05:35:25.618Z,1002.85
2017-07-24T05:36:25.562Z,1002.85
2017-07-24T05:37:19.910Z,1002.84
2017-07-24T05:38:07.877Z,1002.83
2017-07-24T05:39:07.689Z,1002.78
2017-07-24T05:40:02.655Z,1002.85
2017-07-24T05:41:02.870Z,1002.83
2017-07-24T05:41:56.801Z,1002.83
2017-07-24T05:42:45.882Z,1002.83
2017-07-24T05:43:34.918Z,1002.84
2017-07-24T05:44:22.916Z,1002.81
2017-07-24T05:45:10.913Z,1002.85
2017-07-24T05:45:59.012Z,1002.88
2017-07-24T05:46:48.102Z,1002.85
2017-07-24T05:47:36.191Z,1002.87
2017-07-24T05:48:25.104Z,1002.88
2017-07-24T05:49:20.177Z,1002.87
2017-07-24T05:50:09.210Z,1002.87
2017-07-24T05:51:04.285Z,1002.90
2017-07-24T05:51:58.353Z,1002.87
2017-07-24T05:52:46.643Z,1002.90
2017-07-24T05:53:40.348Z,1002.91
2017-07-24T05:54:41.363Z,1002.91
2017-07-24T05:55:36.720Z,1002.90
2017-07-24T05:56:36.799Z,1002.93
2017-07-24T05:57:36.560Z,1002.90
2017-07-24T05:58:36.642Z,1002.89
2017-07-24T05:59:36.542Z,1002.89
2017-07-24T06:00:36.770Z,1002.90
2017-07-24T06:01:31.700Z,1002.90
2017-07-24T06:02:19.780Z,1002.91
2017-07-24T06:03:08.824Z,1002.92
2017-07-24T06:03:57.949Z,1002.93
2017-07-24T06:04:52.942Z,1002.88
2017-07-24T06:05:40.859Z,1002.89
2017-07-24T06:06:40.862Z,1002.90
2017-07-24T06:07:35.012Z,1002.87
2017-07-24T06:08:36.443Z,1002.89
2017-07-24T06:09:36.019Z,1002.87
2017-07-24T06:10:36.174Z,1002.90
2017-07-24T06:11:30.068Z,1002.89
2017-07-24T06:12:30.123Z,1002.90
2017-07-24T06:13:24.195Z,1002.89
2017-07-24T06:14:18.495Z,1002.92
2017-07-24T06:15:07.480Z,1002.92
2017-07-24T06:16:02.739Z,1002.92
2017-07-24T06:16:56.299Z,1002.90
2017-07-24T06:17:50.811Z,1002.92
2017-07-24T06:18:44.361Z,1002.93
2017-07-24T06:19:39.754Z,1002.92
2017-07-24T06:20:39.475Z,1002.92
2017-07-24T06:21:33.532Z,1002.91
2017-07-24T06:22:28.948Z,1002.96
2017-07-24T06:23:17.571Z,1002.95
2017-07-24T06:24:06.643Z,1002.97
2017-07-24T06:24:55.968Z,1002.95
2017-07-24T06:25:49.764Z,1002.96
2017-07-24T06:26:43.820Z,1002.99
2017-07-24T06:27:44.890Z,1002.98
2017-07-24T06:28:44.832Z,1002.99
2017-07-24T06:29:44.886Z,1003.01
2017-07-24T06:30:45.311Z,1003.01
2017-07-24T06:31:45.007Z,1002.99
2017-07-24T06:32:45.063Z,1002.97
2017-07-24T06:33:45.088Z,1002.95
2017-07-24T06:34:45.323Z,1002.92
2017-07-24T06:35:45.192Z,1002.93
2017-07-24T06:36:45.168Z,1002.93
2017-07-24T06:37:45.343Z,1002.93
2017-07-24T06:38:45.204Z,1002.93
2017-07-24T06:39:45.292Z,1002.92
2017-07-24T06:40:45.431Z,1002.93
2017-07-24T06:41:45.659Z,1002.92
2017-07-24T06:42:34.404Z,1002.92
2017-07-24T06:43:22.802Z,1002.93
2017-07-24T06:44:10.481Z,1002.91
2017-07-24T06:44:59.596Z,1002.87
2017-07-24T06:45:54.594Z,1002.88
2017-07-24T06:46:54.496Z,1002.87
2017-07-24T06:47:54.717Z,1002.86
2017-07-24T06:48:48.738Z,1002.88
2017-07-24T06:49:36.712Z,1002.92
2017-07-24T06:50:30.707Z,1002.90
2017-07-24T06:51:19.770Z,1002.86
2017-07-24T06:52:14.273Z,1002.85
2017-07-24T06:53:13.856Z,1002.82
2017-07-24T06:54:07.939Z,1002.82
2017-07-24T06:55:08.072Z,1002.86
2017-07-24T06:56:07.978Z,1002.86
2017-07-24T06:57:08.061Z,1002.87
2017-07-24T06:57:56.199Z,1002.87
2017-07-24T06:58:44.206Z,1002.88
2017-07-24T06:59:32.246Z,1002.84
2017-07-24T07:00:21.348Z,1002.86
2017-07-24T07:01:15.271Z,1002.87
2017-07-24T07:02:10.461Z,1002.93
2017-07-24T07:02:59.555Z,1002.92
2017-07-24T07:03:53.422Z,1002.91
2017-07-24T07:04:42.934Z,1002.89
2017-07-24T07:05:31.447Z,1002.90
2017-07-24T07:06:20.839Z,1002.92
2017-07-24T07:07:08.611Z,1002.88
2017-07-24T07:07:57.942Z,1002.89
2017-07-24T07:08:46.638Z,1002.87
2017-07-24T07:09:41.095Z,1002.88
2017-07-24T07:10:29.763Z,1002.88
2017-07-24T07:11:17.836Z,1002.91
2017-07-24T07:12:18.337Z,1002.94
2017-07-24T07:13:13.202Z,1002.97
2017-07-24T07:14:01.081Z,1003.01
2017-07-24T07:14:49.948Z,1002.99
2017-07-24T07:15:44.287Z,1002.98
2017-07-24T07:16:44.034Z,1003.00
2017-07-24T07:17:44.431Z,1002.98
2017-07-24T07:18:33.291Z,1002.99
2017-07-24T07:19:22.256Z,1002.95
2017-07-24T07:20:11.221Z,1002.94
2017-07-24T07:20:59.273Z,1002.93
2017-07-24T07:21:48.308Z,1002.93
2017-07-24T07:22:36.765Z,1002.94
2017-07-24T07:23:30.560Z,1002.89
2017-07-24T07:24:24.786Z,1002.96
2017-07-24T07:25:13.913Z,1002.95
2017-07-24T07:26:01.993Z,1002.92
2017-07-24T07:26:51.005Z,1002.93
2017-07-24T07:27:39.931Z,1002.96
2017-07-24T07:28:33.990Z,1002.88
2017-07-24T07:29:29.183Z,1002.92
2017-07-24T07:30:24.111Z,1002.91
2017-07-24T07:31:13.320Z,1002.91
2017-07-24T07:32:13.302Z,1002.94
2017-07-24T07:33:06.953Z,1002.94
2017-07-24T07:34:07.920Z,1002.95
2017-07-24T07:35:07.993Z,1002.95
2017-07-24T07:36:03.010Z,1002.93
2017-07-24T07:36:58.143Z,1002.95
2017-07-24T07:37:59.376Z,1002.92
2017-07-24T07:38:59.472Z,1002.89
2017-07-24T07:39:54.632Z,1002.89
2017-07-24T07:40:50.244Z,1002.87
2017-07-24T07:41:49.559Z,1002.88
2017-07-24T07:42:44.604Z,1002.86
2017-07-24T07:43:39.637Z,1002.90
2017-07-24T07:44:28.628Z,1002.86
2017-07-24T07:45:22.702Z,1002.88
2017-07-24T07:46:22.790Z,1002.87
2017-07-24T07:47:16.974Z,1002.86
2017-07-24T07:48:16.938Z,1002.84
2017-07-24T07:49:12.013Z,1002.81
2017-07-24T07:50:24.033Z,1002.86
2017-07-24T07:51:18.974Z,1002.84
2017-07-24T07:52:14.160Z,1002.85
2017-07-24T07:53:13.993Z,1002.85
2017-07-24T07:54:09.252Z,1002.86
2017-07-24T07:55:04.175Z,1002.86
2017-07-24T07:56:04.273Z,1002.85
2017-07-24T07:57:04.177Z,1002.86
2017-07-24T07:57:58.231Z,1002.83
2017-07-24T07:58:58.400Z,1002.82
2017-07-24T07:59:53.361Z,1002.86
2017-07-24T08:00:59.452Z,1002.85
2017-07-24T08:01:59.557Z,1002.85
2017-07-24T08:03:00.455Z,1002.84
2017-07-24T08:04:01.498Z,1002.83
2017-07-24T08:05:01.862Z,1002.82
2017-07-24T08:06:01.625Z,1002.84
2017-07-24T08:06:55.665Z,1002.84
2017-07-24T08:07:56.660Z,1002.82
2017-07-24T08:08:56.781Z,1002.88
2017-07-24T08:09:51.817Z,1002.91
2017-07-24T08:10:46.792Z,1002.86
2017-07-24T08:11:47.898Z,1002.86
2017-07-24T08:12:47.841Z,1002.85
2017-07-24T08:13:42.855Z,1002.87
2017-07-24T08:14:37.861Z,1002.89
2017-07-24T08:15:37.996Z,1002.89
2017-07-24T08:16:33.224Z,1002.87
2017-07-24T08:17:28.070Z,1002.89
2017-07-24T08:18:22.168Z,1002.84
2017-07-24T08:19:23.189Z,1002.83
2017-07-24T08:20:18.141Z,1002.82
2017-07-24T08:21:18.240Z,1002.86
2017-07-24T08:22:07.564Z,1002.87
2017-07-24T08:22:56.317Z,1002.86
2017-07-24T08:23:44.370Z,1002.84
2017-07-24T08:24:32.463Z,1002.86
2017-07-24T08:25:21.536Z,1002.85
2017-07-24T08:26:09.561Z,1002.90
2017-07-24T08:26:58.536Z,1002.90
2017-07-24T08:27:58.561Z,1002.90
2017-07-24T08:28:47.679Z,1002.91
2017-07-24T08:29:35.718Z,1002.88
2017-07-24T08:30:24.851Z,1002.91
2017-07-24T08:31:24.771Z,1002.93
2017-07-24T08:32:18.823Z,1002.95
2017-07-24T08:33:13.859Z,1002.97
2017-07-24T08:34:08.891Z,1003.00
2017-07-24T08:35:08.892Z,1002.98
2017-07-24T08:36:10.062Z,1002.96
2017-07-24T08:37:10.017Z,1002.99
2017-07-24T08:38:05.086Z,1002.97
2017-07-24T08:39:05.082Z,1002.99
2017-07-24T08:40:00.169Z,1002.94
2017-07-24T08:40:55.267Z,1002.95
2017-07-24T08:41:49.204Z,1002.93
2017-07-24T08:42:49.274Z,1002.99
2017-07-24T08:43:44.111Z,1002.93
2017-07-24T08:44:43.996Z,1002.96
2017-07-24T08:45:44.141Z,1002.97
2017-07-24T08:46:33.402Z,1003.00
2017-07-24T08:47:21.475Z,1002.98
2017-07-24T08:48:21.450Z,1003.05
2017-07-24T08:49:21.561Z,1003.03
2017-07-24T08:50:15.562Z,1003.03
2017-07-24T08:51:09.632Z,1003.05
2017-07-24T08:52:03.680Z,1003.07
2017-07-24T08:52:52.552Z,1003.10
2017-07-24T08:53:47.734Z,1003.08
2017-07-24T08:54:47.717Z,1003.06
2017-07-24T08:55:36.893Z,1003.06
2017-07-24T08:56:24.750Z,1003.08
2017-07-24T08:57:20.290Z,1003.05
2017-07-24T08:58:14.990Z,1003.10
2017-07-24T08:59:08.995Z,1003.07
2017-07-24T09:00:03.789Z,1003.08
2017-07-24T09:01:04.206Z,1003.10
2017-07-24T09:01:53.220Z,1003.08
2017-07-24T09:02:42.149Z,1003.12
2017-07-24T09:03:36.181Z,1003.16
2017-07-24T09:04:31.251Z,1003.16
2017-07-24T09:05:20.155Z,1003.14
2017-07-24T09:06:20.543Z,1003.16
2017-07-24T09:07:08.501Z,1003.14
2017-07-24T09:07:57.073Z,1003.15
2017-07-24T09:08:51.418Z,1003.13
2017-07-24T09:09:40.258Z,1003.13
2017-07-24T09:10:46.360Z,1003.13
2017-07-24T09:11:41.978Z,1003.15
2017-07-24T09:12:30.741Z,1003.11
2017-07-24T09:13:19.717Z,1003.14
2017-07-24T09:14:13.729Z,1003.14
2017-07-24T09:15:01.833Z,1003.14
2017-07-24T09:15:49.841Z,1003.12
2017-07-24T09:16:38.961Z,1003.12
2017-07-24T09:17:28.111Z,1003.14
2017-07-24T09:18:22.057Z,1003.10
2017-07-24T09:19:16.099Z,1003.10
2017-07-24T09:20:05.109Z,1003.10
2017-07-24T09:20:54.140Z,1003.12
2017-07-24T09:21:48.221Z,1003.13
2017-07-24T09:22:43.262Z,1003.15
2017-07-24T09:23:37.262Z,1003.12
2017-07-24T09:24:25.340Z,1003.14
2017-07-24T09:25:19.311Z,1003.16
2017-07-24T09:26:14.290Z,1003.17
2017-07-24T09:27:08.518Z,1003.14
2017-07-24T09:28:03.497Z,1003.16
2017-07-24T09:28:51.515Z,1003.16
2017-07-24T09:29:51.661Z,1003.15
2017-07-24T09:30:46.663Z,1003.17
2017-07-24T09:31:34.672Z,1003.17
2017-07-24T09:32:34.677Z,1003.16
2017-07-24T09:33:29.790Z,1003.10
2017-07-24T09:34:29.834Z,1003.17
2017-07-24T09:35:24.805Z,1003.15
2017-07-24T09:36:18.844Z,1003.15
2017-07-24T09:37:20.073Z,1003.08
2017-07-24T09:38:13.943Z,1003.10
2017-07-24T09:39:14.048Z,1003.11
2017-07-24T09:40:03.045Z,1003.12
2017-07-24T09:40:57.086Z,1003.12
2017-07-24T09:41:52.170Z,1003.09
2017-07-24T09:42:40.336Z,1003.08
2017-07-24T09:43:34.253Z,1003.08
2017-07-24T09:44:34.356Z,1003.11
2017-07-24T09:45:21.953Z,1003.11
2017-07-24T09:46:21.944Z,1003.07
2017-07-24T09:47:17.498Z,1003.13
2017-07-24T09:48:06.426Z,1003.10
2017-07-24T09:49:01.469Z,1003.09
2017-07-24T09:50:01.613Z,1003.10
2017-07-24T09:50:56.548Z,1003.07
2017-07-24T09:51:51.611Z,1003.06
2017-07-24T09:52:45.619Z,1003.06
2017-07-24T09:53:45.607Z,1003.04
2017-07-24T09:54:40.775Z,1003.02
2017-07-24T09:55:29.777Z,1003.04
2017-07-24T09:56:24.014Z,1003.06
2017-07-24T09:57:17.962Z,1003.05
2017-07-24T09:58:18.010Z,1003.10
2017-07-24T09:59:07.019Z,1003.10
2017-07-24T09:59:56.008Z,1003.06
2017-07-24T10:00:44.276Z,1003.09
2017-07-24T10:01:44.159Z,1003.10
2017-07-24T10:02:39.147Z,1003.08
2017-07-24T10:03:33.322Z,1003.12
2017-07-24T10:04:33.275Z,1003.09
2017-07-24T10:05:22.299Z,1003.11
2017-07-24T10:06:16.344Z,1003.13
2017-07-24T10:07:11.333Z,1003.16
2017-07-24T10:08:05.356Z,1003.12
2017-07-24T10:08:53.462Z,1003.15
2017-07-24T10:09:41.586Z,1003.19
2017-07-24T10:10:29.531Z,1003.20
2017-07-24T10:11:18.583Z,1003.19
2017-07-24T10:12:07.598Z,1003.18
2017-07-24T10:12:56.650Z,1003.20
2017-07-24T10:13:56.767Z,1003.22
2017-07-24T10:14:45.778Z,1003.19
2017-07-24T10:15:39.788Z,1003.18
2017-07-24T10:16:34.912Z,1003.17
2017-07-24T10:17:29.990Z,1003.17
2017-07-24T10:18:24.600Z,1003.19
2017-07-24T10:19:25.034Z,1003.16
2017-07-24T10:20:19.065Z,1003.15
2017-07-24T10:21:13.145Z,1003.14
2017-07-24T10:22:07.504Z,1003.10
2017-07-24T10:22:56.157Z,1003.13
2017-07-24T10:23:45.275Z,1003.11
2017-07-24T10:24:34.343Z,1003.12
2017-07-24T10:25:23.291Z,1003.07
2017-07-24T10:26:11.332Z,1003.07
2017-07-24T10:27:05.429Z,1003.09
2017-07-24T10:27:54.413Z,1003.03
2017-07-24T10:28:48.655Z,1003.03
2017-07-24T10:29:48.619Z,1002.95
2017-07-24T10:30:43.629Z,1002.98